Time;durP1;ratioP1;P1;durP2;ratioP2;P2;SDS_P1;SDS_P2;PMS_P1;PMS_P2;Temp;Humidity;BMP_temperature;BMP_pressure;BME280_temperature;BME280_humidity;BME280_pressure;Samples;Min_cycle;Max_cycle;Signal;HPM_P1;HPM_P2
2023/12/05 00:00:25;;;;;;;13.50;8.57;;;0.70;99.90;;;;;;4870962;28;94732;-31
2023/12/05 00:02:50;;;;;;;14.75;10.63;;;0.70;99.90;;;;;;4872354;28;94027;-32
2023/12/05 00:05:16;;;;;;;13.63;10.13;;;0.70;99.90;;;;;;4869750;28;93260;-31
2023/12/05 00:07:43;;;;;;;14.52;9.70;;;0.70;99.90;;;;;;4880074;28;94588;-31
2023/12/05 00:10:09;;;;;;;10.57;8.02;;;0.80;99.90;;;;;;4874461;28;95023;-31
2023/12/05 00:12:35;;;;;;;15.60;10.88;;;0.70;99.90;;;;;;4864611;28;93210;-32
2023/12/05 00:15:01;;;;;;;18.13;10.93;;;0.60;99.90;;;;;;4864020;28;94749;-30
2023/12/05 00:17:26;;;;;;;17.83;10.18;;;0.70;99.90;;;;;;4864847;28;94741;-29
2023/12/05 00:19:52;;;;;;;15.13;10.25;;;0.70;99.90;;;;;;4864430;28;94951;-31
2023/12/05 00:22:18;;;;;;;17.85;10.68;;;0.70;99.90;;;;;;4865435;28;94766;-30
2023/12/05 00:24:43;;;;;;;15.98;8.30;;;0.70;99.90;;;;;;4871243;28;96337;-33
2023/12/05 00:27:09;;;;;;;13.63;9.73;;;0.70;99.90;;;;;;4867109;28;94255;-32
2023/12/05 00:29:36;;;;;;;11.85;8.43;;;0.70;99.90;;;;;;4876704;28;94054;-32
2023/12/05 00:32:02;;;;;;;13.73;9.45;;;0.70;99.90;;;;;;4880761;28;95310;-31
2023/12/05 00:34:27;;;;;;;13.27;9.05;;;0.70;99.90;;;;;;4878350;28;93907;-34
2023/12/05 00:36:53;;;;;;;14.13;9.57;;;0.70;99.90;;;;;;4877790;28;94554;-34
2023/12/05 00:39:19;;;;;;;9.70;7.57;;;0.70;99.90;;;;;;4878049;28;94636;-31
2023/12/05 00:41:45;;;;;;;12.90;7.43;;;0.70;99.90;;;;;;4874342;28;94072;-30
2023/12/05 00:44:11;;;;;;;16.17;10.23;;;0.70;99.90;;;;;;4878137;28;94702;-33
2023/12/05 00:46:36;;;;;;;17.73;10.18;;;0.70;99.90;;;;;;4877091;28;95029;-30
2023/12/05 00:49:02;;;;;;;15.55;10.88;;;0.70;99.90;;;;;;4877413;28;94425;-34
2023/12/05 00:51:28;;;;;;;21.45;13.25;;;0.80;99.90;;;;;;4873454;28;93283;-32
2023/12/05 00:53:53;;;;;;;17.90;11.55;;;0.70;99.90;;;;;;4876894;28;93034;-31
2023/12/05 00:56:20;;;;;;;9.75;8.13;;;0.70;99.90;;;;;;4872821;28;95369;-30
2023/12/05 00:58:46;;;;;;;16.80;9.57;;;0.70;99.90;;;;;;4877917;28;95206;-31
2023/12/05 01:01:12;;;;;;;15.43;10.73;;;0.80;99.90;;;;;;4877087;28;94056;-31
2023/12/05 01:03:37;;;;;;;16.50;10.93;;;0.60;99.90;;;;;;4876931;28;92534;-29
2023/12/05 01:06:03;;;;;;;13.43;9.80;;;0.70;99.90;;;;;;4875815;28;94831;-30
2023/12/05 01:08:29;;;;;;;17.73;12.90;;;0.70;99.90;;;;;;4877425;28;95410;-29
2023/12/05 01:10:54;;;;;;;14.65;9.77;;;0.70;99.90;;;;;;4875897;28;92141;-30
2023/12/05 01:13:20;;;;;;;18.23;11.65;;;0.80;99.90;;;;;;4878211;28;93775;-31
2023/12/05 01:15:46;;;;;;;10.15;8.60;;;0.70;99.90;;;;;;4872080;28;94882;-30
2023/12/05 01:18:11;;;;;;;16.42;9.82;;;0.70;99.90;;;;;;4880116;28;94074;-30
2023/12/05 01:20:37;;;;;;;14.55;9.30;;;0.70;99.90;;;;;;4877157;28;94838;-29
2023/12/05 01:23:02;;;;;;;18.33;13.95;;;0.80;99.90;;;;;;4879538;28;94300;-30
2023/12/05 01:25:28;;;;;;;19.88;12.45;;;0.70;99.90;;;;;;4880389;28;95057;-30
2023/12/05 01:27:54;;;;;;;20.90;14.52;;;0.70;99.90;;;;;;4876451;28;94142;-32
2023/12/05 01:30:20;;;;;;;17.80;11.18;;;0.70;99.90;;;;;;4879653;28;93523;-32
2023/12/05 01:32:46;;;;;;;14.05;10.80;;;0.70;99.90;;;;;;4879201;28;93662;-31
2023/12/05 01:35:11;;;;;;;19.33;13.82;;;0.70;99.90;;;;;;4879098;28;94863;-31
2023/12/05 01:37:38;;;;;;;16.35;9.98;;;0.70;99.90;;;;;;4880272;28;94139;-29
2023/12/05 01:40:05;;;;;;;16.63;9.77;;;0.70;99.90;;;;;;4879199;28;93696;-29
2023/12/05 01:42:35;;;;;;;18.00;12.65;;;0.80;99.90;;;;;;4879771;28;93975;-32
2023/12/05 01:45:01;;;;;;;13.48;9.88;;;0.80;99.90;;;;;;4878548;28;95420;-31
2023/12/05 01:47:27;;;;;;;22.92;14.98;;;0.80;99.90;;;;;;4880109;28;95052;-29
2023/12/05 01:49:52;;;;;;;17.73;10.20;;;0.70;99.90;;;;;;4879685;28;94435;-31
2023/12/05 01:52:19;;;;;;;19.60;13.68;;;0.70;99.90;;;;;;4879307;28;92517;-34
2023/12/05 01:54:45;;;;;;;21.23;13.77;;;0.70;99.90;;;;;;4879256;28;94537;-33
2023/12/05 01:57:10;;;;;;;19.42;12.07;;;0.70;99.90;;;;;;4878725;28;94615;-30
2023/12/05 01:59:36;;;;;;;18.02;13.18;;;0.70;99.90;;;;;;4879808;28;92738;-29
2023/12/05 02:02:02;;;;;;;18.48;13.77;;;0.70;99.90;;;;;;4878945;28;92609;-33
2023/12/05 02:04:29;;;;;;;16.48;10.07;;;0.80;99.90;;;;;;4879221;28;95421;-32
2023/12/05 02:06:55;;;;;;;20.67;11.95;;;0.80;99.90;;;;;;4878990;28;95188;-30
2023/12/05 02:09:22;;;;;;;18.75;12.98;;;0.80;99.90;;;;;;4878161;28;94215;-31
2023/12/05 02:11:48;;;;;;;13.80;9.60;;;0.70;99.90;;;;;;4879571;28;93796;-32
2023/12/05 02:14:14;;;;;;;18.77;11.27;;;0.80;99.90;;;;;;4880035;28;94761;-29
2023/12/05 02:16:49;;;;;;;22.45;14.65;;;0.80;99.90;;;;;;4878120;28;95031;-32
2023/12/05 02:19:43;;;;;;;18.42;12.52;;;0.80;99.90;;;;;;4867672;28;95730;-31
2023/12/05 02:22:44;;;;;;;17.08;13.38;;;0.70;99.90;;;;;;4864608;28;94587;-31
2023/12/05 02:25:27;;;;;;;14.15;11.07;;;0.80;99.90;;;;;;4840440;28;94677;-32
2023/12/05 02:27:53;;;;;;;13.32;10.50;;;0.80;99.90;;;;;;4873531;28;94901;-33
2023/12/05 02:30:19;;;;;;;18.70;11.30;;;0.80;99.90;;;;;;4868247;28;93064;-29
2023/12/05 02:32:46;;;;;;;15.45;10.95;;;0.80;99.90;;;;;;4864990;28;93552;-30
2023/12/05 02:35:12;;;;;;;14.18;9.75;;;0.80;99.90;;;;;;4878217;28;96127;-32
2023/12/05 02:38:02;;;;;;;15.35;10.45;;;0.90;99.90;;;;;;4861735;28;95006;-31
2023/12/05 02:40:50;;;;;;;21.52;13.38;;;0.90;99.90;;;;;;4862645;28;94099;-32
2023/12/05 02:43:20;;;;;;;16.70;11.85;;;0.90;99.90;;;;;;4866852;28;94830;-33
2023/12/05 02:45:49;;;;;;;15.50;11.55;;;0.80;99.90;;;;;;4878191;28;96482;-30
2023/12/05 02:48:16;;;;;;;;;;;0.90;99.90;;;;;;4877857;28;94683;-30
2023/12/05 02:50:41;;;;;;;19.95;13.50;;;0.90;99.90;;;;;;4880626;28;92297;-29
2023/12/05 02:53:07;;;;;;;15.82;10.50;;;0.80;99.90;;;;;;4877324;28;92389;-34
2023/12/05 02:55:33;;;;;;;16.55;11.88;;;0.90;99.90;;;;;;4878064;28;94301;-30
2023/12/05 02:57:58;;;;;;;21.88;12.45;;;0.90;99.90;;;;;;4876523;28;94922;-34
2023/12/05 03:00:24;;;;;;;18.08;11.90;;;0.80;99.90;;;;;;4878693;28;94257;-30
2023/12/05 03:02:49;;;;;;;14.52;11.13;;;0.90;99.90;;;;;;4878024;28;93950;-30
2023/12/05 03:05:16;;;;;;;17.83;12.07;;;0.80;99.90;;;;;;4877910;28;94898;-29
2023/12/05 03:07:42;;;;;;;18.27;10.45;;;0.90;99.90;;;;;;4877005;28;96313;-30
2023/12/05 03:10:08;;;;;;;17.98;11.45;;;0.90;99.90;;;;;;4877790;28;93713;-31
2023/12/05 03:12:33;;;;;;;20.50;11.93;;;0.90;99.90;;;;;;4877310;28;92678;-31
2023/12/05 03:15:00;;;;;;;15.32;12.30;;;0.90;99.90;;;;;;4877999;28;95027;-30
2023/12/05 03:17:26;;;;;;;21.85;13.88;;;0.80;99.90;;;;;;4877031;28;94690;-30
2023/12/05 03:19:51;;;;;;;17.45;13.18;;;0.90;99.90;;;;;;4878842;28;93324;-29
2023/12/05 03:22:17;;;;;;;21.48;12.73;;;0.80;99.90;;;;;;4876876;28;95096;-29
2023/12/05 03:24:43;;;;;;;25.67;15.40;;;0.80;99.90;;;;;;4877313;28;96121;-30
2023/12/05 03:27:08;;;;;;;21.15;13.43;;;0.90;99.90;;;;;;4874780;28;94898;-31
2023/12/05 03:29:34;;;;;;;18.10;11.68;;;0.90;99.90;;;;;;4870597;28;93048;-32
2023/12/05 03:31:59;;;;;;;21.90;13.75;;;0.80;99.90;;;;;;4859675;28;95199;-30
2023/12/05 03:34:25;;;;;;;20.60;13.20;;;0.90;99.90;;;;;;4858635;28;94923;-30
2023/12/05 03:36:50;;;;;;;17.17;11.20;;;0.90;99.90;;;;;;4859658;28;94567;-30
2023/12/05 03:39:16;;;;;;;19.55;12.60;;;1.00;99.90;;;;;;4873450;28;92157;-30
2023/12/05 03:41:43;;;;;;;16.38;11.48;;;0.90;99.90;;;;;;4864416;28;93957;-30
2023/12/05 03:44:09;;;;;;;19.23;13.80;;;0.90;99.90;;;;;;4862548;28;94579;-32
2023/12/05 03:46:34;;;;;;;22.00;15.30;;;0.90;99.90;;;;;;4863442;28;95732;-30
2023/12/05 03:49:00;;;;;;;26.42;16.00;;;0.90;99.90;;;;;;4864307;28;93101;-29
2023/12/05 03:51:26;;;;;;;20.85;14.00;;;0.90;99.90;;;;;;4863959;28;94709;-29
2023/12/05 03:53:51;;;;;;;28.13;14.75;;;0.90;99.90;;;;;;4864387;28;95897;-34
2023/12/05 03:56:17;;;;;;;22.95;13.50;;;0.90;99.90;;;;;;4874757;28;94674;-32
2023/12/05 03:58:42;;;;;;;21.52;13.50;;;0.90;99.90;;;;;;4864519;28;94100;-33
2023/12/05 04:01:08;;;;;;;25.27;14.68;;;0.90;99.90;;;;;;4864209;28;92847;-30
2023/12/05 04:03:35;;;;;;;22.15;14.75;;;0.90;99.90;;;;;;4864161;28;94658;-29
2023/12/05 04:06:01;;;;;;;23.25;14.00;;;0.90;99.90;;;;;;4865577;28;94551;-32
2023/12/05 04:08:26;;;;;;;24.63;17.10;;;0.90;99.90;;;;;;4865513;28;94476;-31
2023/12/05 04:10:52;;;;;;;24.48;13.65;;;0.90;99.90;;;;;;4865529;28;94292;-33
2023/12/05 04:13:17;;;;;;;22.40;12.30;;;0.90;99.90;;;;;;4864681;28;95954;-31
2023/12/05 04:15:43;;;;;;;21.58;15.02;;;0.90;99.90;;;;;;4865599;28;95815;-30
2023/12/05 04:18:08;;;;;;;22.20;13.82;;;0.90;99.90;;;;;;4864896;28;93205;-33
2023/12/05 04:20:34;;;;;;;22.15;14.25;;;0.90;99.90;;;;;;4864452;28;94883;-30
2023/12/05 04:23:00;;;;;;;21.52;12.30;;;0.80;99.90;;;;;;4864090;28;94408;-32
2023/12/05 04:25:25;;;;;;;23.20;15.18;;;0.80;99.90;;;;;;4866517;28;94952;-30
2023/12/05 04:27:51;;;;;;;30.00;16.00;;;0.90;99.90;;;;;;4867259;28;93899;-33
2023/12/05 04:30:17;;;;;;;23.73;15.25;;;0.90;99.90;;;;;;4881584;28;92737;-33
2023/12/05 04:32:42;;;;;;;26.13;12.35;;;0.80;99.90;;;;;;4862521;28;94165;-30
2023/12/05 04:35:08;;;;;;;18.50;13.60;;;0.90;99.90;;;;;;4862183;28;94327;-31
2023/12/05 04:37:34;;;;;;;17.05;10.93;;;0.90;99.90;;;;;;4861299;28;93855;-31
2023/12/05 04:39:59;;;;;;;25.65;14.82;;;0.90;99.90;;;;;;4861866;28;94012;-32
2023/12/05 04:42:25;;;;;;;23.67;15.75;;;0.90;99.90;;;;;;4874057;28;94691;-31
2023/12/05 04:44:50;;;;;;;23.17;12.48;;;0.90;99.90;;;;;;4861105;28;94144;-33
2023/12/05 04:47:16;;;;;;;26.45;14.75;;;0.90;99.90;;;;;;4862638;28;94407;-29
2023/12/05 04:49:42;;;;;;;28.88;15.70;;;0.90;99.90;;;;;;4873715;28;93119;-28
2023/12/05 04:52:07;;;;;;;27.05;15.55;;;0.90;99.90;;;;;;4880224;28;94923;-33
2023/12/05 04:54:33;;;;;;;15.85;11.73;;;0.90;99.90;;;;;;4868749;28;94542;-33
2023/12/05 04:56:58;;;;;;;26.95;16.30;;;0.90;99.90;;;;;;4861433;28;93948;-33
2023/12/05 04:59:24;;;;;;;21.88;16.48;;;0.90;99.90;;;;;;4862389;28;94689;-30
2023/12/05 05:01:50;;;;;;;22.15;15.25;;;0.90;99.90;;;;;;4861486;28;95227;-33
2023/12/05 05:04:15;;;;;;;21.35;12.73;;;0.90;99.90;;;;;;4873972;28;95401;-31
2023/12/05 05:06:41;;;;;;;22.25;15.45;;;0.90;99.90;;;;;;4862599;28;94213;-32
2023/12/05 05:09:07;;;;;;;27.63;14.95;;;0.90;99.90;;;;;;4874639;28;93359;-30
2023/12/05 05:11:33;;;;;;;25.38;16.67;;;0.90;99.90;;;;;;4863774;28;94960;-32
2023/12/05 05:13:58;;;;;;;22.67;15.68;;;0.80;99.90;;;;;;4873750;28;94635;-34
2023/12/05 05:16:24;;;;;;;23.60;13.65;;;0.90;99.90;;;;;;4875599;28;92168;-30
2023/12/05 05:18:52;;;;;;;22.65;14.90;;;0.90;99.90;;;;;;4864021;28;93851;-30
2023/12/05 05:21:17;;;;;;;19.00;12.23;;;0.90;99.90;;;;;;4862562;28;94820;-30
2023/12/05 05:23:43;;;;;;;24.90;14.48;;;0.90;99.90;;;;;;4860381;28;94808;-30
2023/12/05 05:26:09;;;;;;;22.17;13.88;;;0.90;99.90;;;;;;4879540;28;95459;-31
2023/12/05 05:28:34;;;;;;;22.30;11.85;;;0.80;99.90;;;;;;4875594;28;93499;-33
2023/12/05 05:31:01;;;;;;;22.30;17.02;;;0.90;99.90;;;;;;4874246;28;94100;-31
2023/12/05 05:33:26;;;;;;;22.25;13.90;;;0.90;99.90;;;;;;4875199;28;93453;-33
2023/12/05 05:35:52;;;;;;;21.20;12.27;;;0.90;99.90;;;;;;4874709;28;94520;-31
2023/12/05 05:38:18;;;;;;;25.55;15.93;;;0.90;99.90;;;;;;4874423;28;93421;-31
2023/12/05 05:40:43;;;;;;;22.42;15.05;;;0.90;99.90;;;;;;4874990;28;94490;-29
2023/12/05 05:43:09;;;;;;;25.63;15.50;;;0.90;99.90;;;;;;4877537;28;94355;-33
2023/12/05 05:45:35;;;;;;;24.83;14.98;;;0.90;99.90;;;;;;4878100;28;93211;-32
2023/12/05 05:48:01;;;;;;;23.88;13.05;;;0.90;99.90;;;;;;4875093;28;93162;-33
2023/12/05 05:50:26;;;;;;;28.05;18.90;;;0.90;99.90;;;;;;4874925;28;95715;-29
2023/12/05 05:52:52;;;;;;;22.92;12.02;;;0.90;99.90;;;;;;4873330;28;95487;-29
2023/12/05 05:55:24;;;;;;;20.23;12.80;;;0.90;99.90;;;;;;4876296;28;92382;-31
2023/12/05 05:57:50;;;;;;;17.98;14.55;;;0.90;99.90;;;;;;4876012;28;93067;-30
2023/12/05 06:00:17;;;;;;;22.27;12.82;;;0.90;99.90;;;;;;4875438;28;94840;-33
2023/12/05 06:02:43;;;;;;;30.20;17.25;;;0.90;99.90;;;;;;4871870;28;94647;-31
2023/12/05 06:05:09;;;;;;;17.38;12.00;;;0.90;99.90;;;;;;4876405;28;94844;-29
2023/12/05 06:07:36;;;;;;;23.25;14.00;;;0.90;99.90;;;;;;4873213;28;91567;-31
2023/12/05 06:10:02;;;;;;;24.20;16.95;;;0.90;99.90;;;;;;4875993;28;97167;-32
2023/12/05 06:12:28;;;;;;;28.13;15.05;;;0.90;99.90;;;;;;4878340;28;94118;-30
2023/12/05 06:14:54;;;;;;;24.40;13.15;;;0.90;99.90;;;;;;4875416;28;95330;-33
2023/12/05 06:17:19;;;;;;;26.65;14.73;;;0.90;99.90;;;;;;4872011;28;93816;-32
2023/12/05 06:19:45;;;;;;;21.95;12.95;;;0.80;99.90;;;;;;4876975;28;94692;-31
2023/12/05 06:22:11;;;;;;;23.58;13.40;;;0.90;99.90;;;;;;4876649;28;94188;-31
2023/12/05 06:24:36;;;;;;;24.50;14.20;;;0.90;99.90;;;;;;4879447;28;94186;-32
2023/12/05 06:27:03;;;;;;;17.30;9.75;;;0.90;99.90;;;;;;4874483;28;93426;-30
2023/12/05 06:29:28;;;;;;;17.85;12.20;;;0.90;99.90;;;;;;4873551;28;93264;-29
2023/12/05 06:31:54;;;;;;;29.63;17.95;;;0.90;99.90;;;;;;4871068;28;94634;-32
2023/12/05 06:34:20;;;;;;;24.75;13.80;;;0.80;99.90;;;;;;4861843;28;94275;-29
2023/12/05 06:36:45;;;;;;;31.42;16.75;;;0.80;99.90;;;;;;4858684;28;93236;-29
2023/12/05 06:39:11;;;;;;;21.45;13.82;;;0.70;99.90;;;;;;4872644;28;95715;-31
2023/12/05 06:41:37;;;;;;;26.10;16.88;;;0.80;99.90;;;;;;4875079;28;95635;-33
2023/12/05 06:44:03;;;;;;;24.70;13.80;;;0.90;99.90;;;;;;4878127;28;94382;-32
2023/12/05 06:46:29;;;;;;;24.63;14.30;;;0.90;99.90;;;;;;4876105;28;92163;-31
2023/12/05 06:48:54;;;;;;;21.25;15.02;;;0.80;99.90;;;;;;4873958;28;95890;-29
2023/12/05 06:51:21;;;;;;;27.38;18.13;;;0.80;99.90;;;;;;4869442;28;95757;-29
2023/12/05 06:53:47;;;;;;;25.67;15.32;;;0.80;99.90;;;;;;4870225;28;93443;-30
2023/12/05 06:56:14;;;;;;;21.80;14.02;;;0.70;99.90;;;;;;4866247;28;93154;-30
2023/12/05 06:58:40;;;;;;;25.53;14.73;;;0.70;99.90;;;;;;4874059;28;94653;-30
2023/12/05 07:01:07;;;;;;;25.27;15.65;;;0.70;99.90;;;;;;4861253;28;96077;-30
2023/12/05 07:03:32;;;;;;;26.52;16.70;;;0.80;99.90;;;;;;4867310;28;95455;-32
2023/12/05 07:05:58;;;;;;;37.20;18.42;;;0.70;99.90;;;;;;4868371;28;94714;-30
2023/12/05 07:08:23;;;;;;;27.25;16.63;;;0.80;99.90;;;;;;4865567;28;94332;-30
2023/12/05 07:10:49;;;;;;;27.00;16.10;;;0.80;99.90;;;;;;4867948;28;94634;-33
2023/12/05 07:13:15;;;;;;;28.58;15.45;;;0.80;99.90;;;;;;4865193;28;94564;-32
2023/12/05 07:15:41;;;;;;;28.23;17.60;;;0.80;99.90;;;;;;4862895;28;93570;-32
2023/12/05 07:18:07;;;;;;;23.23;15.02;;;0.80;99.90;;;;;;4864962;28;94700;-29
2023/12/05 07:20:33;;;;;;;24.90;17.95;;;0.80;99.90;;;;;;4875955;28;94024;-32
2023/12/05 07:22:59;;;;;;;28.73;15.88;;;0.80;99.90;;;;;;4874345;28;93711;-30
2023/12/05 07:25:24;;;;;;;24.17;18.00;;;0.80;99.90;;;;;;4875619;28;93452;-31
2023/12/05 07:27:50;;;;;;;21.75;14.35;;;0.80;99.90;;;;;;4871945;28;95578;-30
2023/12/05 07:30:16;;;;;;;29.27;18.35;;;0.80;99.90;;;;;;4874665;28;95655;-30
2023/12/05 07:32:42;;;;;;;19.65;13.50;;;0.80;99.90;;;;;;4907780;23;94752;-30
2023/12/05 07:35:08;;;;;;;30.20;17.65;;;0.80;99.90;;;;;;4876558;28;93971;-31
2023/12/05 07:37:33;;;;;;;29.67;19.75;;;0.80;99.90;;;;;;4874935;28;94780;-27
2023/12/05 07:39:59;;;;;;;29.08;17.13;;;0.80;99.90;;;;;;4875602;28;94512;-33
2023/12/05 07:42:24;;;;;;;25.90;14.35;;;0.70;99.90;;;;;;4875792;28;94115;-32
2023/12/05 07:44:50;;;;;;;30.38;20.60;;;0.80;99.90;;;;;;4875966;28;93495;-32
2023/12/05 07:47:16;;;;;;;30.85;15.77;;;0.80;99.90;;;;;;4874781;28;94952;-32
2023/12/05 07:49:45;;;;;;;27.60;16.88;;;0.80;99.90;;;;;;4871024;28;94662;-30
2023/12/05 07:52:10;;;;;;;29.17;18.77;;;0.80;99.90;;;;;;4872425;28;94424;-31
2023/12/05 07:54:36;;;;;;;33.67;16.42;;;0.70;99.90;;;;;;4873243;28;94540;-33
2023/12/05 07:57:03;;;;;;;34.63;19.80;;;0.70;99.90;;;;;;4873946;28;94485;-29
2023/12/05 07:59:29;;;;;;;26.83;16.42;;;0.70;99.90;;;;;;4873778;28;94807;-31
2023/12/05 08:01:54;;;;;;;24.08;16.02;;;0.80;99.90;;;;;;4875263;28;92655;-28
2023/12/05 08:04:20;;;;;;;26.58;14.68;;;0.70;99.90;;;;;;4875545;28;94249;-31
2023/12/05 08:06:46;;;;;;;26.65;15.65;;;0.80;99.90;;;;;;4875148;28;94858;-30
2023/12/05 08:09:11;;;;;;;28.70;17.80;;;0.70;99.90;;;;;;4875175;28;95372;-30
2023/12/05 08:11:38;;;;;;;22.25;15.30;;;0.70;99.90;;;;;;4875132;28;94339;-33
2023/12/05 08:14:03;;;;;;;33.00;18.38;;;0.70;99.90;;;;;;4875749;28;93419;-30
2023/12/05 08:16:29;;;;;;;23.48;15.90;;;0.70;99.90;;;;;;4869216;28;95651;-31
2023/12/05 08:18:55;;;;;;;30.90;19.55;;;0.70;99.90;;;;;;4854267;28;95638;-30
2023/12/05 08:21:20;;;;;;;25.13;15.68;;;0.70;99.90;;;;;;4871517;28;93304;-30
2023/12/05 08:23:46;;;;;;;20.65;13.98;;;0.70;99.90;;;;;;4874454;28;95019;-32
2023/12/05 08:26:11;;;;;;;23.48;15.57;;;0.80;99.90;;;;;;4877055;28;95192;-30
2023/12/05 08:28:38;;;;;;;34.42;18.13;;;0.70;99.90;;;;;;4878433;28;94720;-31
2023/12/05 08:31:04;;;;;;;25.67;16.05;;;0.70;99.90;;;;;;4878281;28;95032;-30
2023/12/05 08:33:29;;;;;;;28.08;16.38;;;0.70;99.90;;;;;;4878695;28;92718;-32
2023/12/05 08:35:55;;;;;;;27.63;16.50;;;0.70;99.90;;;;;;4878641;28;94456;-30
2023/12/05 08:38:21;;;;;;;24.55;14.95;;;0.70;99.90;;;;;;4878882;28;95677;-33
2023/12/05 08:40:46;;;;;;;28.55;16.48;;;0.80;99.90;;;;;;4878488;28;95131;-30
2023/12/05 08:43:12;;;;;;;29.42;15.45;;;0.80;99.90;;;;;;4878963;28;94765;-32
2023/12/05 08:45:37;;;;;;;24.88;17.85;;;0.70;99.90;;;;;;4877869;28;94345;-31
2023/12/05 08:48:03;;;;;;;29.13;16.02;;;0.70;99.90;;;;;;4878440;28;93522;-32
2023/12/05 08:50:29;;;;;;;27.13;15.40;;;0.80;99.90;;;;;;4878587;28;93306;-31
2023/12/05 08:52:54;;;;;;;25.95;15.65;;;0.80;99.90;;;;;;4878727;28;94696;-31
2023/12/05 08:55:20;;;;;;;27.58;17.17;;;0.80;99.90;;;;;;4878525;28;94885;-32
2023/12/05 08:57:46;;;;;;;26.90;19.48;;;0.70;99.90;;;;;;4873085;28;94558;-34
2023/12/05 09:00:12;;;;;;;20.42;15.70;;;0.80;99.90;;;;;;4878783;28;92725;-30
2023/12/05 09:02:37;;;;;;;26.38;17.02;;;0.90;99.90;;;;;;4878479;28;94120;-30
2023/12/05 09:05:04;;;;;;;34.78;18.13;;;0.80;99.90;;;;;;4877437;28;95352;-32
2023/12/05 09:07:30;;;;;;;26.23;13.90;;;0.80;99.90;;;;;;4878801;28;95420;-32
2023/12/05 09:09:56;;;;;;;22.23;14.40;;;0.90;99.90;;;;;;4878478;28;94449;-31
2023/12/05 09:12:22;;;;;;;26.35;15.98;;;0.90;99.90;;;;;;4878157;28;93533;-32
2023/12/05 09:14:48;;;;;;;26.58;17.98;;;0.90;99.90;;;;;;4877287;28;94712;-32
2023/12/05 09:17:15;;;;;;;35.00;18.60;;;0.90;99.90;;;;;;4877985;28;94895;-33
2023/12/05 09:19:40;;;;;;;38.38;19.75;;;0.80;99.90;;;;;;4879073;28;92814;-32
2023/12/05 09:22:06;;;;;;;26.92;15.50;;;0.90;99.90;;;;;;4883516;28;92559;-29
2023/12/05 09:24:32;;;;;;;25.38;16.83;;;0.90;99.90;;;;;;4879229;28;94899;-31
2023/12/05 09:26:58;;;;;;;26.35;15.85;;;0.90;99.90;;;;;;4876671;28;94447;-31
2023/12/05 09:29:24;;;;;;;25.92;14.40;;;0.90;99.90;;;;;;4877256;28;94913;-29
2023/12/05 09:31:49;;;;;;;22.88;16.88;;;1.00;99.90;;;;;;4878099;28;94703;-29
2023/12/05 09:34:15;;;;;;;26.80;15.38;;;1.00;99.90;;;;;;4876761;28;94806;-29
2023/12/05 09:36:40;;;;;;;31.85;16.80;;;1.00;99.90;;;;;;4876487;28;94518;-31
2023/12/05 09:39:06;;;;;;;25.85;14.68;;;1.00;99.90;;;;;;4877723;28;93406;-31
2023/12/05 09:41:40;;;;;;;23.27;16.27;;;0.90;99.90;;;;;;4877813;28;94523;-31
2023/12/05 09:44:08;;;;;;;29.60;16.73;;;0.90;99.90;;;;;;4878300;28;94610;-33
2023/12/05 09:46:36;;;;;;;27.42;14.88;;;0.90;99.90;;;;;;4877741;28;94727;-30
2023/12/05 09:49:06;;;;;;;29.20;15.90;;;1.00;99.90;;;;;;4877385;28;92708;-30
2023/12/05 09:51:33;;;;;;;23.50;15.05;;;1.00;99.90;;;;;;4877733;28;94538;-33
2023/12/05 09:54:00;;;;;;;24.23;15.35;;;1.00;99.90;;;;;;4876766;28;95312;-32
2023/12/05 09:56:26;;;;;;;22.13;13.95;;;1.00;99.90;;;;;;4877737;28;93630;-31
2023/12/05 09:58:54;;;;;;;26.73;17.05;;;1.00;99.90;;;;;;4877539;28;94291;-31
2023/12/05 10:01:22;;;;;;;21.67;14.50;;;1.00;99.90;;;;;;4878182;28;94596;-29
2023/12/05 10:03:55;;;;;;;25.02;15.75;;;1.00;99.90;;;;;;4877709;28;94731;-31
2023/12/05 10:06:22;;;;;;;29.30;17.10;;;0.90;99.90;;;;;;4876769;28;94664;-32
2023/12/05 10:08:51;;;;;;;28.38;15.48;;;0.90;99.90;;;;;;4877670;28;93440;-30
2023/12/05 10:11:19;;;;;;;24.00;15.63;;;1.00;99.90;;;;;;4876476;28;93357;-30
2023/12/05 10:13:46;;;;;;;20.00;13.20;;;1.00;99.90;;;;;;4877840;28;95609;-30
2023/12/05 10:16:12;;;;;;;26.20;16.38;;;1.00;99.90;;;;;;4876429;28;95769;-32
2023/12/05 10:18:39;;;;;;;28.75;19.40;;;1.00;99.90;;;;;;4877254;28;94651;-31
2023/12/05 10:21:05;;;;;;;31.73;16.65;;;0.90;99.90;;;;;;4877268;28;94454;-31
2023/12/05 10:23:31;;;;;;;26.98;16.48;;;1.00;99.90;;;;;;4877060;28;92888;-29
2023/12/05 10:25:56;;;;;;;28.13;16.88;;;1.00;99.90;;;;;;4876885;28;94764;-32
2023/12/05 10:28:23;;;;;;;30.50;18.50;;;0.80;99.90;;;;;;4877612;28;93482;-31
2023/12/05 10:30:48;;;;;;;24.33;13.35;;;0.90;99.90;;;;;;4876371;28;94480;-33
2023/12/05 10:33:16;;;;;;;31.98;18.10;;;0.90;99.90;;;;;;4877267;28;94323;-29
2023/12/05 10:35:44;;;;;;;20.60;11.80;;;0.80;99.90;;;;;;4876865;28;93232;-29
2023/12/05 10:38:11;;;;;;;26.13;15.63;;;1.00;99.90;;;;;;4872116;28;94544;-29
2023/12/05 10:40:53;;;;;;;24.23;15.70;;;1.00;99.90;;;;;;4873880;28;94329;-33
2023/12/05 10:43:20;;;;;;;22.88;14.35;;;1.10;99.90;;;;;;4876294;28;95961;-33
2023/12/05 10:45:46;;;;;;;24.63;13.82;;;1.00;99.90;;;;;;4869668;28;95570;-33
2023/12/05 10:48:13;;;;;;;23.70;15.30;;;1.10;99.90;;;;;;4876275;28;93478;-32
2023/12/05 10:50:39;;;;;;;21.92;15.70;;;1.00;99.90;;;;;;4875879;28;93168;-32
2023/12/05 10:53:06;;;;;;;26.70;16.38;;;1.10;99.90;;;;;;4876735;28;95048;-31
2023/12/05 10:55:32;;;;;;;22.45;15.50;;;1.10;99.90;;;;;;4876684;28;93335;-33
2023/12/05 10:57:59;;;;;;;27.52;16.33;;;1.00;99.90;;;;;;4876490;28;92624;-31
2023/12/05 11:00:26;;;;;;;21.23;14.50;;;1.00;99.90;;;;;;4874954;28;93381;-32
2023/12/05 11:02:53;;;;;;;22.92;16.13;;;1.10;99.90;;;;;;4876431;28;94905;-31
2023/12/05 11:05:19;;;;;;;24.47;16.03;;;0.90;99.90;;;;;;4876444;28;94791;-31
2023/12/05 11:07:45;;;;;;;29.85;15.13;;;1.00;99.90;;;;;;4876413;28;95471;-32
2023/12/05 11:10:11;;;;;;;27.23;17.35;;;0.90;99.90;;;;;;4876153;28;92520;-33
2023/12/05 11:12:39;;;;;;;31.58;15.38;;;0.90;99.90;;;;;;4876087;28;94100;-30
2023/12/05 11:15:07;;;;;;;27.73;16.85;;;0.90;99.90;;;;;;4890495;28;94293;-31
2023/12/05 11:17:41;;;;;;;25.90;16.30;;;0.90;99.90;;;;;;4876907;28;93955;-30
2023/12/05 11:20:37;;;;;;;34.40;18.95;;;1.00;99.90;;;;;;4866060;28;94557;-31
2023/12/05 11:23:24;;;;;;;26.00;13.82;;;1.00;99.90;;;;;;4875069;28;94830;-32
2023/12/05 11:26:19;;;;;;;29.53;16.50;;;1.00;99.90;;;;;;4875788;28;94692;-30
2023/12/05 11:29:22;;;;;;;27.60;17.67;;;1.00;99.90;;;;;;4874272;28;93205;-32
2023/12/05 11:31:57;;;;;;;26.02;17.65;;;1.10;99.90;;;;;;4873625;28;94535;-31
2023/12/05 11:35:04;;;;;;;23.77;14.85;;;1.10;99.90;;;;;;4875286;28;95448;-30
2023/12/05 11:37:59;;;;;;;23.37;14.57;;;1.00;99.90;;;;;;4855683;28;95592;-29
2023/12/05 11:40:24;;;;;;;22.67;13.45;;;1.00;99.90;;;;;;4873658;28;92880;-31
2023/12/05 11:43:11;;;;;;;23.55;16.20;;;1.00;99.90;;;;;;4875726;28;93523;-32
2023/12/05 11:45:40;;;;;;;22.70;14.25;;;1.00;99.90;;;;;;4867570;28;94322;-32
2023/12/05 11:48:09;;;;;;;23.23;15.70;;;1.10;99.90;;;;;;4869570;28;94145;-33
2023/12/05 11:50:50;;;;;;;;;;;1.00;99.90;;;;;;4865691;28;94771;-32
2023/12/05 11:53:18;;;;;;;32.53;16.15;;;1.00;99.90;;;;;;4862414;28;91534;-30
2023/12/05 11:55:47;;;;;;;33.40;19.52;;;0.90;99.90;;;;;;4868846;28;95107;-30
2023/12/05 11:58:31;;;;;;;29.63;16.25;;;1.00;99.90;;;;;;4869868;28;93271;-33
2023/12/05 12:01:07;;;;;;;25.67;15.20;;;1.00;99.90;;;;;;4870005;28;93900;-31
2023/12/05 12:03:49;;;;;;;30.92;20.17;;;1.00;99.90;;;;;;4862931;28;93896;-30
2023/12/05 12:06:20;;;;;;;32.70;17.20;;;0.90;99.90;;;;;;4873134;28;94998;-31
2023/12/05 12:08:53;;;;;;;31.17;16.30;;;1.00;99.90;;;;;;4878674;28;94510;-32
2023/12/05 12:11:23;;;;;;;26.05;18.73;;;1.10;99.90;;;;;;4869050;28;94074;-31
2023/12/05 12:13:51;;;;;;;32.45;19.10;;;1.00;99.90;;;;;;4879185;28;94393;-31
2023/12/05 12:16:18;;;;;;;;;;;1.10;99.90;;;;;;4879255;28;94732;-31
2023/12/05 12:18:44;;;;;;;24.13;16.10;;;1.10;99.90;;;;;;4881448;28;94484;-29
2023/12/05 12:21:10;;;;;;;26.83;19.15;;;1.10;99.90;;;;;;4878454;28;94393;-33
2023/12/05 12:23:36;;;;;;;33.15;19.55;;;1.00;99.90;;;;;;4878653;28;93516;-31
2023/12/05 12:26:09;;;;;;;36.35;18.73;;;1.00;99.90;;;;;;4877501;28;95599;-34
2023/12/05 12:28:35;;;;;;;33.47;20.38;;;1.00;99.90;;;;;;4879247;28;94445;-33
2023/12/05 12:31:02;;;;;;;33.00;16.63;;;1.00;99.90;;;;;;4877223;28;94319;-33
2023/12/05 12:33:41;;;;;;;24.85;14.98;;;1.00;99.90;;;;;;4877069;28;93338;-29
2023/12/05 12:36:11;;;;;;;33.80;16.73;;;1.10;99.90;;;;;;4877962;28;94241;-30
2023/12/05 12:38:38;;;;;;;24.27;15.50;;;1.10;99.90;;;;;;4878789;28;92725;-33